Time;durP1;ratioP1;P1;durP2;ratioP2;P2;SDS_P1;SDS_P2;PMS_P1;PMS_P2;Temp;Humidity;BMP_temperature;BMP_pressure;BME280_temperature;BME280_humidity;BME280_pressure;Samples;Min_cycle;Max_cycle;Signal;HPM_P1;HPM_P2
2022/11/04 00:01:40;;;;;;;1.43;1.20;;;;;;;;;;4963555;28;20217;-63
2022/11/04 00:04:11;;;;;;;1.20;1.20;;;;;;;;;;4972256;28;20211;-64
2022/11/04 00:06:39;;;;;;;1.40;1.30;;;;;;;;;;4974906;28;20212;-63
2022/11/04 00:09:12;;;;;;;1.97;1.30;;;;;;;;;;4974243;28;20211;-62
2022/11/04 00:14:25;;;;;;;1.53;1.17;;;;;;;;;;4979562;28;20697;-64
2022/11/04 00:30:54;;;;;;;2.77;1.40;;;;;;;;;;4981499;28;20683;-64
2022/11/04 00:33:24;;;;;;;1.90;1.40;;;;;;;;;;4976423;28;20580;-62
2022/11/04 00:35:53;;;;;;;1.17;1.13;;;;;;;;;;4966253;28;20313;-63
2022/11/04 00:38:21;;;;;;;1.50;1.40;;;;;;;;;;4986543;28;20313;-62
2022/11/04 00:40:48;;;;;;;1.10;1.10;;;;;;;;;;4970993;28;20305;-64
2022/11/04 00:43:15;;;;;;;1.20;1.10;;;;;;;;;;5010787;28;20208;-63
2022/11/04 00:45:43;;;;;;;1.00;0.97;;;;;;;;;;5002991;28;20203;-61
2022/11/04 00:48:10;;;;;;;1.07;1.07;;;;;;;;;;4982417;28;20207;-64
2022/11/04 00:50:38;;;;;;;2.63;1.03;;;;;;;;;;4982748;28;20824;-63
2022/11/04 00:53:06;;;;;;;1.20;1.10;;;;;;;;;;5000379;28;20298;-63
2022/11/04 00:55:33;;;;;;;1.00;1.00;;;;;;;;;;4971774;28;20212;-63
2022/11/04 00:58:01;;;;;;;1.00;1.00;;;;;;;;;;4966086;28;20600;-63
2022/11/04 01:00:28;;;;;;;1.00;1.00;;;;;;;;;;4966055;28;20235;-63
2022/11/04 01:02:56;;;;;;;1.30;1.20;;;;;;;;;;4967526;28;20231;-61
2022/11/04 01:05:24;;;;;;;1.10;1.00;;;;;;;;;;4970652;28;20208;-63
2022/11/04 01:07:52;;;;;;;1.67;0.90;;;;;;;;;;4982197;28;20683;-63
2022/11/04 01:10:19;;;;;;;1.10;1.00;;;;;;;;;;4970849;28;20306;-62
2022/11/04 01:12:47;;;;;;;1.13;1.10;;;;;;;;;;4968115;28;20215;-63
2022/11/04 01:15:14;;;;;;;1.30;1.20;;;;;;;;;;4970777;28;20298;-63
2022/11/04 01:17:41;;;;;;;1.23;1.13;;;;;;;;;;4967495;28;20242;-63
2022/11/04 01:20:09;;;;;;;1.23;1.13;;;;;;;;;;4970028;28;20717;-64
2022/11/04 01:22:36;;;;;;;1.40;1.30;;;;;;;;;;4960719;28;20359;-63
2022/11/04 01:25:04;;;;;;;1.83;1.33;;;;;;;;;;4963895;28;20646;-63
2022/11/04 01:27:32;;;;;;;1.60;1.37;;;;;;;;;;4971317;28;20726;-63
2022/11/04 01:29:59;;;;;;;2.17;1.50;;;;;;;;;;4974704;28;20327;-62
2022/11/04 01:32:27;;;;;;;1.60;1.50;;;;;;;;;;4972645;28;21155;-63
2022/11/04 01:34:55;;;;;;;1.60;1.50;;;;;;;;;;4969123;28;20585;-64
2022/11/04 01:37:22;;;;;;;3.07;1.83;;;;;;;;;;4983934;28;20703;-63
2022/11/04 01:39:50;;;;;;;1.70;1.60;;;;;;;;;;4966567;28;20346;-64
2022/11/04 01:42:20;;;;;;;3.30;2.13;;;;;;;;;;4970406;28;20294;-64
2022/11/04 01:44:49;;;;;;;2.10;1.83;;;;;;;;;;4969261;28;20208;-63
2022/11/04 01:47:25;;;;;;;2.27;2.07;;;;;;;;;;4968504;28;20207;-62
2022/11/04 01:50:00;;;;;;;3.10;2.20;;;;;;;;;;4981675;28;20330;-62
2022/11/04 01:52:45;;;;;;;3.20;1.90;;;;;;;;;;4957504;28;20911;-62
2022/11/04 01:55:15;;;;;;;2.70;2.27;;;;;;;;;;4969345;28;20277;-63
2022/11/04 01:57:45;;;;;;;2.67;2.13;;;;;;;;;;4972196;28;20748;-63
2022/11/04 02:00:13;;;;;;;2.10;2.00;;;;;;;;;;4982268;28;20235;-63
2022/11/04 02:02:49;;;;;;;2.10;2.00;;;;;;;;;;4976546;28;20535;-63
2022/11/04 02:05:19;;;;;;;2.10;1.90;;;;;;;;;;4965996;28;20212;-64
2022/11/04 02:07:49;;;;;;;2.60;1.80;;;;;;;;;;4968469;28;20292;-63
2022/11/04 02:10:17;;;;;;;2.07;1.87;;;;;;;;;;4973096;28;20231;-63
2022/11/04 02:12:50;;;;;;;3.43;2.20;;;;;;;;;;4970857;28;20973;-63
2022/11/04 02:15:20;;;;;;;2.90;2.00;;;;;;;;;;4970956;28;20684;-61
2022/11/04 02:17:47;;;;;;;1.70;1.60;;;;;;;;;;4971036;28;20350;-63
2022/11/04 02:20:41;;;;;;;1.87;1.67;;;;;;;;;;4973115;28;20285;-63
2022/11/04 02:23:18;;;;;;;1.67;1.57;;;;;;;;;;4962227;28;20233;-64
2022/11/04 02:25:48;;;;;;;1.63;1.53;;;;;;;;;;4972436;28;20339;-64
2022/11/04 02:28:34;;;;;;;1.60;1.50;;;;;;;;;;4969260;28;20195;-64
2022/11/04 02:31:04;;;;;;;1.70;1.60;;;;;;;;;;4987969;28;20239;-63
2022/11/04 02:33:31;;;;;;;3.00;2.60;;;;;;;;;;4971373;28;20291;-62
2022/11/04 02:36:03;;;;;;;4.50;4.20;;;;;;;;;;4987957;28;20199;-63
2022/11/04 02:38:50;;;;;;;1.57;1.47;;;;;;;;;;4970415;28;20277;-64
2022/11/04 02:41:23;;;;;;;1.40;1.33;;;;;;;;;;4970347;28;20297;-63
2022/11/04 02:44:20;;;;;;;0.80;0.80;;;;;;;;;;4970627;28;20200;-63
2022/11/04 02:46:56;;;;;;;1.50;1.40;;;;;;;;;;4984123;28;20330;-63
2022/11/04 02:49:43;;;;;;;0.70;0.70;;;;;;;;;;4982947;28;20226;-62
2022/11/04 02:52:12;;;;;;;0.57;0.57;;;;;;;;;;4981444;28;20261;-63
2022/11/04 02:54:45;;;;;;;1.50;0.50;;;;;;;;;;4981595;28;20643;-63
2022/11/04 02:57:19;;;;;;;0.70;0.70;;;;;;;;;;4982253;28;20204;-65
2022/11/04 02:59:49;;;;;;;0.70;0.70;;;;;;;;;;5005318;28;20224;-63
2022/11/04 03:02:19;;;;;;;0.57;0.57;;;;;;;;;;4997019;28;20208;-64
2022/11/04 03:04:49;;;;;;;1.77;0.60;;;;;;;;;;4984815;28;20677;-64
2022/11/04 03:07:18;;;;;;;1.80;0.90;;;;;;;;;;4974394;28;20262;-64
2022/11/04 03:09:49;;;;;;;1.17;0.90;;;;;;;;;;4984236;28;20327;-63
2022/11/04 03:12:19;;;;;;;1.60;0.70;;;;;;;;;;4972443;28;20199;-64
2022/11/04 03:14:52;;;;;;;0.60;0.60;;;;;;;;;;4974962;28;20681;-63
2022/11/04 03:17:22;;;;;;;1.23;0.93;;;;;;;;;;4969205;28;20338;-63
2022/11/04 03:19:53;;;;;;;0.70;0.70;;;;;;;;;;4975259;28;20236;-64
2022/11/04 03:22:22;;;;;;;1.47;0.70;;;;;;;;;;4965588;28;20214;-63
2022/11/04 03:24:50;;;;;;;1.20;0.70;;;;;;;;;;4968017;28;20294;-63
2022/11/04 03:27:27;;;;;;;0.80;0.80;;;;;;;;;;4964866;28;20247;-63
2022/11/04 03:30:00;;;;;;;1.90;1.70;;;;;;;;;;4973095;28;20227;-64
2022/11/04 03:32:28;;;;;;;2.30;0.90;;;;;;;;;;4968441;28;20894;-63
2022/11/04 03:34:55;;;;;;;1.53;1.00;;;;;;;;;;4988503;28;20308;-64
2022/11/04 03:37:23;;;;;;;2.23;1.40;;;;;;;;;;4970727;28;20218;-64
2022/11/04 03:39:50;;;;;;;3.03;2.20;;;;;;;;;;4967737;28;20326;-64
2022/11/04 03:42:19;;;;;;;2.23;1.37;;;;;;;;;;4967671;28;20195;-64
2022/11/04 03:44:54;;;;;;;1.63;1.53;;;;;;;;;;4965491;28;20827;-64
2022/11/04 03:47:24;;;;;;;1.17;1.00;;;;;;;;;;4966352;28;20697;-64
2022/11/04 03:49:53;;;;;;;1.13;1.00;;;;;;;;;;4989113;28;20227;-64
2022/11/04 03:52:20;;;;;;;2.30;0.90;;;;;;;;;;4966677;28;20217;-64
2022/11/04 03:54:48;;;;;;;2.63;1.03;;;;;;;;;;4966902;28;20214;-64
2022/11/04 03:57:21;;;;;;;1.10;1.10;;;;;;;;;;4968774;28;20278;-64
2022/11/04 04:00:03;;;;;;;0.90;0.90;;;;;;;;;;4968761;28;20329;-63
2022/11/04 04:02:55;;;;;;;1.40;1.30;;;;;;;;;;4974895;28;20225;-63
2022/11/04 04:05:41;;;;;;;0.80;0.80;;;;;;;;;;4970350;28;20747;-63
2022/11/04 04:08:12;;;;;;;1.33;0.90;;;;;;;;;;4991682;28;20678;-63
2022/11/04 04:10:40;;;;;;;1.13;1.10;;;;;;;;;;4967114;28;20282;-63
2022/11/04 04:13:07;;;;;;;2.13;1.27;;;;;;;;;;4988079;28;20445;-62
2022/11/04 04:15:47;;;;;;;2.93;2.10;;;;;;;;;;4984485;28;20586;-64
2022/11/04 04:18:16;;;;;;;1.73;0.90;;;;;;;;;;4965981;28;20319;-64
2022/11/04 04:20:46;;;;;;;1.00;0.90;;;;;;;;;;4986968;28;20239;-62
2022/11/04 04:28:55;;;;;;;0.93;0.90;;;;;;;;;;4981894;28;20211;-63
2022/11/04 04:34:08;;;;;;;2.43;1.00;;;;;;;;;;4984909;28;20310;-63
2022/11/04 04:36:43;;;;;;;0.83;0.83;;;;;;;;;;4963807;28;20207;-64
2022/11/04 04:45:02;;;;;;;1.10;1.00;;;;;;;;;;4982979;28;20298;-64
2022/11/04 04:47:48;;;;;;;1.23;0.80;;;;;;;;;;4976683;28;20311;-64
2022/11/04 04:50:16;;;;;;;0.90;0.90;;;;;;;;;;4980995;28;20250;-64
2022/11/04 04:52:45;;;;;;;1.20;1.10;;;;;;;;;;5001354;28;20287;-63
2022/11/04 04:55:13;;;;;;;1.83;0.90;;;;;;;;;;4983963;28;20234;-63
2022/11/04 04:57:41;;;;;;;1.67;0.83;;;;;;;;;;4988776;28;20230;-63
2022/11/04 05:00:09;;;;;;;0.80;0.80;;;;;;;;;;4974660;28;20225;-62
2022/11/04 05:02:37;;;;;;;3.47;2.87;;;;;;;;;;4967673;28;21669;-64
2022/11/04 05:05:05;;;;;;;1.70;1.60;;;;;;;;;;4978453;28;20210;-62
2022/11/04 05:07:32;;;;;;;3.30;1.67;;;;;;;;;;4971888;28;20203;-63
2022/11/04 05:09:59;;;;;;;2.40;2.30;;;;;;;;;;4971588;28;20339;-64
2022/11/04 05:13:24;;;;;;;1.97;1.87;;;;;;;;;;4970650;28;20200;-63
2022/11/04 05:15:14;;;;;;;3.70;2.03;;;;;;;;;;4986203;28;20753;-64
2022/11/04 05:17:41;;;;;;;2.00;1.90;;;;;;;;;;4970050;28;20210;-64
2022/11/04 05:20:09;;;;;;;2.10;2.00;;;;;;;;;;4984352;28;20246;-63
2022/11/04 05:22:37;;;;;;;5.30;4.90;;;;;;;;;;4970256;28;20330;-63
2022/11/04 05:25:04;;;;;;;7.63;6.27;;;;;;;;;;4957240;28;20308;-62
2022/11/04 05:27:32;;;;;;;5.47;4.90;;;;;;;;;;4959101;28;20295;-64
2022/11/04 05:29:59;;;;;;;3.30;3.00;;;;;;;;;;4981511;28;20257;-62
2022/11/04 05:32:29;;;;;;;5.60;5.10;;;;;;;;;;4977419;28;20279;-62
2022/11/04 05:34:56;;;;;;;3.20;3.00;;;;;;;;;;4972320;28;20218;-63
2022/11/04 05:37:24;;;;;;;14.27;10.10;;;;;;;;;;4969079;28;20218;-63
2022/11/04 05:39:51;;;;;;;3.10;2.57;;;;;;;;;;4982127;28;20768;-62
2022/11/04 05:42:18;;;;;;;7.97;4.43;;;;;;;;;;4971884;28;20231;-63
2022/11/04 05:44:46;;;;;;;1.17;1.17;;;;;;;;;;4974307;28;20302;-64
2022/11/04 05:47:13;;;;;;;1.60;1.50;;;;;;;;;;4979676;28;20305;-63
2022/11/04 05:49:40;;;;;;;3.83;2.87;;;;;;;;;;4967531;28;20227;-63
2022/11/04 05:52:08;;;;;;;8.70;6.80;;;;;;;;;;4975547;28;20204;-62
2022/11/04 05:54:37;;;;;;;6.33;5.00;;;;;;;;;;4973485;28;20226;-61
2022/11/04 05:57:05;;;;;;;4.90;4.40;;;;;;;;;;4964951;28;20213;-63
2022/11/04 05:59:32;;;;;;;8.93;7.43;;;;;;;;;;4967251;28;20710;-62
2022/11/04 06:01:59;;;;;;;11.30;6.20;;;;;;;;;;4966079;28;20235;-62
2022/11/04 06:04:27;;;;;;;14.53;8.63;;;;;;;;;;4972948;28;20211;-63
2022/11/04 06:06:54;;;;;;;9.57;7.33;;;;;;;;;;4967776;28;20816;-62
2022/11/04 06:09:37;;;;;;;10.07;8.23;;;;;;;;;;4973772;28;20223;-63
2022/11/04 06:12:06;;;;;;;5.17;4.53;;;;;;;;;;4973950;28;20676;-64
2022/11/04 06:14:33;;;;;;;5.47;4.30;;;;;;;;;;4972731;28;20239;-63
2022/11/04 06:17:01;;;;;;;4.33;4.03;;;;;;;;;;4968472;28;20204;-63
2022/11/04 06:19:29;;;;;;;3.57;3.27;;;;;;;;;;4974403;28;20236;-62
2022/11/04 06:21:56;;;;;;;3.30;3.07;;;;;;;;;;4990383;28;20229;-63
2022/11/04 06:24:23;;;;;;;3.93;2.70;;;;;;;;;;4972624;28;20207;-63
2022/11/04 06:26:51;;;;;;;3.60;2.20;;;;;;;;;;4971862;28;20246;-63
2022/11/04 06:29:18;;;;;;;2.23;1.80;;;;;;;;;;4985330;28;20290;-64
2022/11/04 06:31:46;;;;;;;2.27;2.07;;;;;;;;;;4971204;28;20207;-63
2022/11/04 06:34:14;;;;;;;1.80;1.70;;;;;;;;;;4973630;28;20892;-63
2022/11/04 06:36:42;;;;;;;2.10;2.00;;;;;;;;;;4969914;28;20310;-64
2022/11/04 06:39:10;;;;;;;2.13;1.97;;;;;;;;;;4971707;28;20358;-61
2022/11/04 06:41:37;;;;;;;2.87;1.90;;;;;;;;;;4964365;28;20342;-64
2022/11/04 06:44:04;;;;;;;2.57;1.80;;;;;;;;;;4971607;28;20207;-63
2022/11/04 06:46:32;;;;;;;3.30;2.97;;;;;;;;;;4966324;28;20229;-63
2022/11/04 06:48:59;;;;;;;12.53;6.73;;;;;;;;;;4968965;28;20223;-62
2022/11/04 06:51:27;;;;;;;13.80;7.10;;;;;;;;;;4966866;28;20314;-63
2022/11/04 06:53:55;;;;;;;9.73;7.00;;;;;;;;;;4970079;28;20223;-63
2022/11/04 06:56:23;;;;;;;4.77;3.67;;;;;;;;;;4988464;28;20254;-63
2022/11/04 06:58:52;;;;;;;2.50;2.30;;;;;;;;;;4988350;28;20292;-62
2022/11/04 07:01:20;;;;;;;2.57;2.23;;;;;;;;;;4986576;28;20247;-63
2022/11/04 07:03:49;;;;;;;10.73;8.10;;;;;;;;;;4987648;28;20215;-63
2022/11/04 07:06:17;;;;;;;5.60;4.60;;;;;;;;;;4973057;28;20214;-62
2022/11/04 07:08:44;;;;;;;1.70;1.60;;;;;;;;;;4963977;28;20281;-63
2022/11/04 07:11:12;;;;;;;1.90;1.80;;;;;;;;;;4968728;28;20223;-63
2022/11/04 07:13:39;;;;;;;2.60;1.60;;;;;;;;;;4967497;28;20212;-63
2022/11/04 07:16:08;;;;;;;1.83;1.50;;;;;;;;;;4962914;28;20219;-64
2022/11/04 07:18:35;;;;;;;1.93;1.50;;;;;;;;;;4967382;28;20295;-63
2022/11/04 07:21:03;;;;;;;1.43;1.33;;;;;;;;;;4970994;28;20228;-64
2022/11/04 07:23:36;;;;;;;2.50;2.30;;;;;;;;;;4966429;28;20208;-63
2022/11/04 07:26:05;;;;;;;1.87;1.70;;;;;;;;;;4964904;28;20673;-63
2022/11/04 07:28:33;;;;;;;1.60;1.50;;;;;;;;;;4965986;28;20207;-63
2022/11/04 07:31:01;;;;;;;2.57;1.80;;;;;;;;;;4963897;28;20407;-63
2022/11/04 07:33:28;;;;;;;2.40;1.90;;;;;;;;;;4957574;28;20222;-63
2022/11/04 07:35:55;;;;;;;3.03;2.70;;;;;;;;;;4959092;28;20674;-63
2022/11/04 07:38:24;;;;;;;1.90;1.80;;;;;;;;;;4961046;28;20303;-63
2022/11/04 07:40:52;;;;;;;2.17;1.97;;;;;;;;;;4960747;28;20235;-63
2022/11/04 07:43:19;;;;;;;4.23;3.00;;;;;;;;;;4964737;28;21052;-63
2022/11/04 07:45:47;;;;;;;8.83;4.87;;;;;;;;;;4979218;28;20330;-63
2022/11/04 07:48:14;;;;;;;9.57;6.23;;;;;;;;;;4964259;28;20200;-63
2022/11/04 07:50:41;;;;;;;4.07;3.67;;;;;;;;;;4966755;28;20258;-63
2022/11/04 07:53:10;;;;;;;4.40;3.70;;;;;;;;;;4979826;28;20207;-63
2022/11/04 07:55:38;;;;;;;9.60;7.03;;;;;;;;;;4963513;28;20712;-63
2022/11/04 07:58:09;;;;;;;4.40;3.10;;;;;;;;;;4964126;28;20248;-64
2022/11/04 08:00:37;;;;;;;4.33;3.90;;;;;;;;;;4964639;28;20930;-63
2022/11/04 08:03:04;;;;;;;5.83;5.23;;;;;;;;;;4962836;28;20208;-63
2022/11/04 08:05:32;;;;;;;4.57;3.67;;;;;;;;;;4954481;28;20207;-62
2022/11/04 08:07:59;;;;;;;4.20;3.10;;;;;;;;;;4968816;28;20218;-63
2022/11/04 08:10:27;;;;;;;2.73;2.47;;;;;;;;;;4996767;28;20718;-63
2022/11/04 08:12:55;;;;;;;2.60;2.40;;;;;;;;;;4976634;28;20319;-64
2022/11/04 08:15:22;;;;;;;2.87;2.67;;;;;;;;;;4986554;28;20235;-63
2022/11/04 08:17:49;;;;;;;2.80;2.50;;;;;;;;;;4965520;28;20289;-63
2022/11/04 08:20:17;;;;;;;3.20;3.00;;;;;;;;;;4968231;28;20223;-63
2022/11/04 08:22:44;;;;;;;3.50;2.80;;;;;;;;;;4983727;28;20382;-64
2022/11/04 08:25:12;;;;;;;3.00;2.70;;;;;;;;;;4980992;28;20283;-64
2022/11/04 08:27:40;;;;;;;4.33;2.57;;;;;;;;;;4962525;28;20810;-63
2022/11/04 08:30:08;;;;;;;4.10;3.10;;;;;;;;;;4964775;28;20478;-64
2022/11/04 08:32:36;;;;;;;3.07;2.77;;;;;;;;;;4965727;28;20346;-63
2022/11/04 08:35:03;;;;;;;3.87;3.20;;;;;;;;;;4961745;28;20680;-63
2022/11/04 08:37:31;;;;;;;3.13;2.80;;;;;;;;;;4979183;28;20222;-63
2022/11/04 08:39:58;;;;;;;6.37;3.30;;;;;;;;;;4963624;28;20231;-63
2022/11/04 08:42:25;;;;;;;3.10;2.90;;;;;;;;;;4967638;28;20224;-63
2022/11/04 08:44:52;;;;;;;2.50;2.30;;;;;;;;;;4973520;28;20696;-63
2022/11/04 08:47:20;;;;;;;2.47;1.90;;;;;;;;;;4982845;28;23304;-63
2022/11/04 08:49:47;;;;;;;2.67;2.43;;;;;;;;;;4983451;28;20355;-62
2022/11/04 08:52:15;;;;;;;2.47;2.27;;;;;;;;;;4972906;28;20208;-61
2022/11/04 08:54:43;;;;;;;2.40;2.20;;;;;;;;;;5000691;28;20860;-64
2022/11/04 08:57:11;;;;;;;4.47;2.53;;;;;;;;;;4975511;28;20298;-62
2022/11/04 08:59:38;;;;;;;4.77;3.13;;;;;;;;;;4966342;28;20974;-62
2022/11/04 09:02:06;;;;;;;5.00;3.80;;;;;;;;;;4954679;28;20225;-62
2022/11/04 09:04:34;;;;;;;2.47;2.20;;;;;;;;;;4956519;28;20206;-63
2022/11/04 09:07:02;;;;;;;2.73;2.50;;;;;;;;;;4959132;28;20234;-61
2022/11/04 09:09:34;;;;;;;2.50;2.30;;;;;;;;;;4957575;28;20228;-63
2022/11/04 09:12:01;;;;;;;2.57;2.10;;;;;;;;;;4963002;28;20310;-61
2022/11/04 09:14:29;;;;;;;5.23;2.20;;;;;;;;;;4978042;28;20207;-63
2022/11/04 09:16:56;;;;;;;2.50;2.00;;;;;;;;;;4971624;28;20439;-63
2022/11/04 09:19:24;;;;;;;5.83;2.37;;;;;;;;;;4956811;28;20231;-63
2022/11/04 09:21:51;;;;;;;2.13;1.93;;;;;;;;;;4964837;28;20681;-63
2022/11/04 09:24:19;;;;;;;5.13;2.00;;;;;;;;;;4963261;28;20302;-63
2022/11/04 09:26:46;;;;;;;3.83;1.87;;;;;;;;;;4964120;28;20716;-63
2022/11/04 09:29:13;;;;;;;2.23;1.90;;;;;;;;;;4963580;28;20779;-63
2022/11/04 09:31:42;;;;;;;1.93;1.73;;;;;;;;;;4966923;28;20207;-62
2022/11/04 09:34:09;;;;;;;2.10;1.90;;;;;;;;;;4961639;28;20765;-62
2022/11/04 09:36:36;;;;;;;1.90;1.80;;;;;;;;;;4967559;28;20210;-62
2022/11/04 09:39:04;;;;;;;1.90;1.60;;;;;;;;;;4964281;28;20304;-63
2022/11/04 09:41:35;;;;;;;2.27;1.50;;;;;;;;;;4969680;28;20326;-62
2022/11/04 09:44:21;;;;;;;2.33;1.70;;;;;;;;;;4960813;28;20699;-62
2022/11/04 09:46:49;;;;;;;1.50;1.40;;;;;;;;;;4963609;28;20347;-63
2022/11/04 09:49:16;;;;;;;1.40;1.40;;;;;;;;;;4965141;28;20547;-62
2022/11/04 09:51:46;;;;;;;1.73;1.40;;;;;;;;;;4961767;28;24990;-62
2022/11/04 09:54:27;;;;;;;3.07;1.50;;;;;;;;;;4948232;28;20216;-62
2022/11/04 09:56:56;;;;;;;1.30;1.20;;;;;;;;;;4965760;28;21336;-62
2022/11/04 09:59:28;;;;;;;2.13;1.20;;;;;;;;;;4961535;28;20227;-62
2022/11/04 10:02:11;;;;;;;1.60;1.50;;;;;;;;;;4965300;28;20341;-63
2022/11/04 10:04:43;;;;;;;4.10;1.63;;;;;;;;;;4960461;28;20220;-62
2022/11/04 10:07:11;;;;;;;3.00;1.40;;;;;;;;;;4969869;28;20551;-62
2022/11/04 10:09:38;;;;;;;4.83;1.57;;;;;;;;;;4965248;28;20262;-63
2022/11/04 10:12:05;;;;;;;2.20;1.43;;;;;;;;;;4962557;28;20607;-63
2022/11/04 10:14:51;;;;;;;2.90;1.87;;;;;;;;;;4960770;28;20313;-61
2022/11/04 10:17:24;;;;;;;3.93;1.93;;;;;;;;;;4981996;28;20354;-63
2022/11/04 10:19:52;;;;;;;3.67;1.53;;;;;;;;;;4966653;28;20605;-62
2022/11/04 10:22:22;;;;;;;1.77;1.40;;;;;;;;;;4964230;28;20314;-62
2022/11/04 10:25:01;;;;;;;4.27;1.50;;;;;;;;;;4967781;28;20239;-63
2022/11/04 10:27:31;;;;;;;2.63;1.50;;;;;;;;;;4968437;28;20203;-61
2022/11/04 10:30:00;;;;;;;4.37;1.73;;;;;;;;;;4961864;28;20223;-63
2022/11/04 10:32:31;;;;;;;2.07;1.40;;;;;;;;;;4983301;28;20745;-61
2022/11/04 10:34:59;;;;;;;4.87;1.87;;;;;;;;;;4963533;28;20222;-63
2022/11/04 10:37:26;;;;;;;5.43;2.03;;;;;;;;;;4967105;28;22584;-61
2022/11/04 10:40:00;;;;;;;3.43;1.77;;;;;;;;;;4964092;28;21437;-63
2022/11/04 10:42:27;;;;;;;4.90;1.67;;;;;;;;;;4951849;28;22728;-63
2022/11/04 10:44:55;;;;;;;2.00;1.57;;;;;;;;;;4999327;28;20211;-62
2022/11/04 10:47:28;;;;;;;2.00;1.70;;;;;;;;;;4982204;28;20629;-63
2022/11/04 10:50:01;;;;;;;4.50;1.80;;;;;;;;;;4983952;28;20318;-63
2022/11/04 10:52:48;;;;;;;3.23;1.90;;;;;;;;;;4982638;28;20215;-63
2022/11/04 10:55:19;;;;;;;2.80;1.60;;;;;;;;;;4970805;28;20222;-63
2022/11/04 10:57:46;;;;;;;3.07;1.97;;;;;;;;;;4978268;28;20356;-63
2022/11/04 11:00:32;;;;;;;2.97;1.90;;;;;;;;;;4983654;28;20346;-62
2022/11/04 11:02:59;;;;;;;2.33;1.67;;;;;;;;;;4984352;28;20326;-61
2022/11/04 11:05:28;;;;;;;3.80;2.10;;;;;;;;;;4989324;28;20644;-63
2022/11/04 11:07:57;;;;;;;3.60;2.03;;;;;;;;;;4965714;28;20208;-63
2022/11/04 11:10:24;;;;;;;5.27;1.80;;;;;;;;;;4967757;28;20227;-63
2022/11/04 11:12:53;;;;;;;2.87;2.10;;;;;;;;;;4963612;28;20488;-63
2022/11/04 11:15:29;;;;;;;6.70;2.60;;;;;;;;;;4988481;28;20560;-61
2022/11/04 11:18:13;;;;;;;4.30;1.70;;;;;;;;;;4973949;28;20211;-62
2022/11/04 11:20:42;;;;;;;2.97;1.50;;;;;;;;;;4963069;28;20326;-63
2022/11/04 11:23:29;;;;;;;3.20;1.83;;;;;;;;;;4957200;28;20576;-63
2022/11/04 11:25:57;;;;;;;5.63;2.40;;;;;;;;;;4958708;28;20506;-63
2022/11/04 11:28:25;;;;;;;1.80;1.60;;;;;;;;;;4956672;28;20218;-61
2022/11/04 11:30:55;;;;;;;5.80;3.10;;;;;;;;;;4972032;28;20223;-61
2022/11/04 11:33:25;;;;;;;4.47;1.77;;;;;;;;;;4975516;28;20743;-63
2022/11/04 11:35:53;;;;;;;4.50;2.57;;;;;;;;;;4979307;28;20768;-63
2022/11/04 11:38:26;;;;;;;4.00;2.10;;;;;;;;;;4980142;28;20221;-63
2022/11/04 11:41:04;;;;;;;4.07;1.70;;;;;;;;;;4985402;28;20251;-63
2022/11/04 11:43:54;;;;;;;2.67;1.50;;;;;;;;;;4991658;28;20221;-63
2022/11/04 11:46:23;;;;;;;2.33;1.90;;;;;;;;;;4975085;28;20227;-61
2022/11/04 11:48:51;;;;;;;6.10;1.90;;;;;;;;;;4995620;28;20204;-63
2022/11/04 11:51:26;;;;;;;3.47;1.50;;;;;;;;;;4975168;28;20306;-63
2022/11/04 11:54:17;;;;;;;3.00;1.67;;;;;;;;;;4982199;28;20199;-63
2022/11/04 11:56:48;;;;;;;3.20;1.70;;;;;;;;;;4967894;28;20274;-63
2022/11/04 12:00:05;;;;;;;3.10;1.60;;;;;;;;;;4980387;28;20238;-64
2022/11/04 12:03:10;;;;;;;3.53;1.50;;;;;;;;;;4964849;28;20239;-63
2022/11/04 12:05:44;;;;;;;2.17;1.57;;;;;;;;;;4965048;28;20221;-63
2022/11/04 12:08:47;;;;;;;4.10;1.57;;;;;;;;;;4967255;28;20200;-63
2022/11/04 12:11:34;;;;;;;4.50;1.60;;;;;;;;;;4965282;28;20205;-63
2022/11/04 12:14:09;;;;;;;3.57;1.50;;;;;;;;;;4966774;28;20282;-63
2022/11/04 12:16:37;;;;;;;4.33;2.23;;;;;;;;;;4967692;28;20222;-64
2022/11/04 12:19:10;;;;;;;2.23;1.47;;;;;;;;;;4965647;28;20215;-63
2022/11/04 12:21:41;;;;;;;3.47;2.50;;;;;;;;;;4962084;28;20243;-64
2022/11/04 12:24:13;;;;;;;3.33;1.70;;;;;;;;;;4965285;28;20674;-63
2022/11/04 12:26:41;;;;;;;3.27;1.97;;;;;;;;;;4945646;28;20215;-62
2022/11/04 12:29:28;;;;;;;3.23;1.90;;;;;;;;;;4941111;28;20213;-62
2022/11/04 12:32:03;;;;;;;3.00;1.60;;;;;;;;;;4949264;28;20274;-63
2022/11/04 12:34:34;;;;;;;6.53;2.03;;;;;;;;;;4945631;28;20332;-61
2022/11/04 12:37:10;;;;;;;3.23;2.30;;;;;;;;;;4963061;28;20757;-61
2022/11/04 12:39:56;;;;;;;4.60;2.30;;;;;;;;;;4949139;28;20338;-63
2022/11/04 12:42:34;;;;;;;2.97;1.83;;;;;;;;;;4951245;28;20229;-61
2022/11/04 12:45:20;;;;;;;2.53;1.50;;;;;;;;;;4958117;28;20212;-63
2022/11/04 12:47:48;;;;;;;5.53;1.90;;;;;;;;;;4964919;28;20202;-62
2022/11/04 12:50:31;;;;;;;2.60;1.60;;;;;;;;;;4960648;28;20721;-62
2022/11/04 12:53:01;;;;;;;4.80;2.00;;;;;;;;;;4984189;28;20592;-62
2022/11/04 12:55:29;;;;;;;5.63;2.00;;;;;;;;;;4983194;28;20256;-64
2022/11/04 12:58:15;;;;;;;2.87;1.70;;;;;;;;;;4955436;28;20223;-62
2022/11/04 13:00:44;;;;;;;2.33;1.37;;;;;;;;;;4941281;28;20265;-61
2022/11/04 13:03:17;;;;;;;2.73;1.60;;;;;;;;;;4950030;28;21195;-62
2022/11/04 13:05:59;;;;;;;4.00;1.60;;;;;;;;;;4962772;28;20212;-62
2022/11/04 13:08:32;;;;;;;4.97;2.60;;;;;;;;;;4952849;28;20739;-64
2022/11/04 13:11:21;;;;;;;2.40;1.90;;;;;;;;;;4942411;28;20242;-63
2022/11/04 13:13:58;;;;;;;3.40;2.30;;;;;;;;;;4945724;28;20308;-63
2022/11/04 13:16:29;;;;;;;2.20;1.80;;;;;;;;;;4952944;28;20212;-62
2022/11/04 13:18:58;;;;;;;4.73;2.30;;;;;;;;;;4961718;28;20322;-63
2022/11/04 13:21:27;;;;;;;6.53;3.00;;;;;;;;;;4949160;28;20237;-62
2022/11/04 13:24:05;;;;;;;1.63;1.40;;;;;;;;;;4976807;28;20281;-63
2022/11/04 13:26:33;;;;;;;3.47;1.70;;;;;;;;;;4968782;28;20209;-63
2022/11/04 13:29:07;;;;;;;4.27;1.30;;;;;;;;;;4954015;28;20212;-63
2022/11/04 13:31:38;;;;;;;2.67;1.57;;;;;;;;;;4950143;28;20202;-63
2022/11/04 13:34:10;;;;;;;1.50;1.40;;;;;;;;;;4949659;28;20938;-61
2022/11/04 13:36:41;;;;;;;3.97;2.20;;;;;;;;;;4951379;28;20215;-62
2022/11/04 13:39:18;;;;;;;1.90;1.60;;;;;;;;;;4957017;28;20240;-63
2022/11/04 13:41:58;;;;;;;1.57;1.47;;;;;;;;;;4956176;28;20297;-63
2022/11/04 13:44:30;;;;;;;4.47;2.00;;;;;;;;;;4957132;28;20215;-62
2022/11/04 13:47:00;;;;;;;9.73;5.83;;;;;;;;;;4966311;28;20243;-61
2022/11/04 13:49:35;;;;;;;5.93;3.40;;;;;;;;;;4961385;28;20760;-63
2022/11/04 13:52:10;;;;;;;5.10;2.67;;;;;;;;;;4949996;28;20219;-60
2022/11/04 13:54:40;;;;;;;7.53;4.57;;;;;;;;;;4949258;28;20203;-62
2022/11/04 13:57:11;;;;;;;8.53;5.10;;;;;;;;;;4963805;28;20208;-63
2022/11/04 13:59:39;;;;;;;24.23;9.67;;;;;;;;;;4945347;28;20228;-62
2022/11/04 14:02:19;;;;;;;16.70;6.50;;;;;;;;;;4956670;28;20204;-63
2022/11/04 14:04:47;;;;;;;3.60;2.77;;;;;;;;;;4962629;28;20207;-62
2022/11/04 14:07:16;;;;;;;1.93;1.40;;;;;;;;;;4952591;28;20216;-63
2022/11/04 14:09:44;;;;;;;4.20;1.47;;;;;;;;;;4954371;28;20335;-62
2022/11/04 14:12:17;;;;;;;3.30;1.20;;;;;;;;;;4950539;28;20770;-62
2022/11/04 14:14:46;;;;;;;2.60;1.00;;;;;;;;;;4954877;28;20342;-62
2022/11/04 14:17:32;;;;;;;1.57;1.20;;;;;;;;;;4953247;28;20221;-62
2022/11/04 14:20:10;;;;;;;2.50;1.20;;;;;;;;;;4955482;28;20229;-63
2022/11/04 14:22:37;;;;;;;3.20;1.47;;;;;;;;;;4951939;28;22204;-61
2022/11/04 14:25:20;;;;;;;2.07;1.20;;;;;;;;;;4977240;28;20561;-62
2022/11/04 14:27:49;;;;;;;4.80;1.00;;;;;;;;;;4966998;28;20342;-64
2022/11/04 14:30:35;;;;;;;2.23;1.07;;;;;;;;;;4936937;28;20243;-60
2022/11/04 14:33:07;;;;;;;2.47;1.23;;;;;;;;;;4943006;28;20976;-61
2022/11/04 14:35:38;;;;;;;1.20;1.10;;;;;;;;;;4961046;28;20208;-61
2022/11/04 14:38:18;;;;;;;1.07;0.97;;;;;;;;;;4962605;28;20226;-61
2022/11/04 14:40:48;;;;;;;1.00;0.90;;;;;;;;;;4979211;28;20623;-60
2022/11/04 14:43:34;;;;;;;1.53;1.07;;;;;;;;;;4977339;28;20347;-61
2022/11/04 14:46:01;;;;;;;1.63;1.10;;;;;;;;;;4999120;28;20250;-61
2022/11/04 14:48:30;;;;;;;2.03;1.10;;;;;;;;;;4979360;28;20300;-61
2022/11/04 14:50:57;;;;;;;5.47;3.30;;;;;;;;;;4988169;28;20338;-60
2022/11/04 14:53:28;;;;;;;5.10;3.87;;;;;;;;;;4962279;28;22212;-61
2022/11/04 14:56:03;;;;;;;2.87;2.20;;;;;;;;;;4941617;28;20212;-61
2022/11/04 14:58:31;;;;;;;3.10;2.17;;;;;;;;;;4964027;28;20222;-61
2022/11/04 15:00:59;;;;;;;2.20;2.07;;;;;;;;;;4951073;28;20228;-60
2022/11/04 15:03:28;;;;;;;6.13;3.77;;;;;;;;;;4962925;28;20255;-61
2022/11/04 15:06:23;;;;;;;4.40;3.60;;;;;;;;;;4953750;28;20353;-62
2022/11/04 15:09:27;;;;;;;3.10;2.80;;;;;;;;;;4947238;28;20220;-62
2022/11/04 15:14:47;;;;;;;1.40;1.10;;;;;;;;;;4965231;28;20211;-61
2022/11/04 15:17:17;;;;;;;1.27;1.10;;;;;;;;;;4942710;28;20238;-62
2022/11/04 15:19:47;;;;;;;1.90;0.90;;;;;;;;;;4965998;28;20291;-63
2022/11/04 15:22:15;;;;;;;1.03;1.00;;;;;;;;;;4954571;28;20819;-62
2022/11/04 15:24:43;;;;;;;1.30;1.23;;;;;;;;;;4938295;28;20211;-63
2022/11/04 15:27:13;;;;;;;1.50;1.20;;;;;;;;;;4948949;28;23447;-63
2022/11/04 15:29:40;;;;;;;1.63;1.37;;;;;;;;;;4954672;28;20231;-64
2022/11/04 15:32:16;;;;;;;1.60;1.50;;;;;;;;;;4972006;28;20212;-63
2022/11/04 15:34:44;;;;;;;1.60;1.43;;;;;;;;;;4964502;28;20217;-64
2022/11/04 15:37:11;;;;;;;1.50;1.20;;;;;;;;;;4964998;28;20966;-63
2022/11/04 15:39:46;;;;;;;1.23;1.13;;;;;;;;;;4968513;28;20239;-63
2022/11/04 15:45:22;;;;;;;1.77;1.67;;;;;;;;;;4989975;28;20632;-63